createdAt,value
2018-02-11T00:00:39.606Z,67.12
2018-02-11T00:03:07.898Z,67.11
2018-02-11T00:05:36.246Z,67.37
2018-02-11T00:08:04.552Z,67.27
2018-02-11T00:10:32.892Z,67.29
2018-02-11T00:13:01.200Z,67.30
2018-02-11T00:15:29.580Z,67.36
2018-02-11T00:17:57.900Z,67.40
2018-02-11T00:20:26.242Z,67.47
2018-02-11T00:22:54.569Z,67.72
2018-02-11T00:25:22.891Z,67.98
2018-02-11T00:27:51.232Z,68.20
2018-02-11T00:30:20.298Z,68.36
2018-02-11T00:32:49.056Z,68.31
2018-02-11T00:35:17.355Z,68.31
2018-02-11T00:37:51.147Z,68.14
2018-02-11T00:40:19.464Z,68.33
2018-02-11T00:42:48.607Z,68.54
2018-02-11T00:45:16.945Z,68.54
2018-02-11T00:47:46.052Z,68.33
2018-02-11T00:50:15.176Z,68.21
2018-02-11T00:52:43.516Z,68.13
2018-02-11T00:55:12.589Z,68.41
2018-02-11T00:57:40.921Z,68.43
2018-02-11T01:00:09.272Z,68.50
2018-02-11T01:02:38.361Z,68.52
2018-02-11T01:05:07.514Z,68.69
2018-02-11T01:07:35.867Z,68.48
2018-02-11T01:10:04.206Z,68.36
2018-02-11T01:12:33.328Z,68.30
2018-02-11T01:15:01.649Z,68.24
2018-02-11T01:17:29.988Z,68.44
2018-02-11T01:19:58.346Z,68.44
2018-02-11T01:22:27.462Z,68.44
2018-02-11T01:24:55.814Z,68.49
2018-02-11T01:27:24.874Z,68.68
2018-02-11T01:29:53.185Z,69.39
2018-02-11T01:32:22.291Z,69.34
2018-02-11T01:34:50.607Z,69.57
2018-02-11T01:37:18.931Z,69.64
2018-02-11T01:39:48.328Z,69.70
2018-02-11T01:42:17.427Z,69.91
2018-02-11T01:44:45.727Z,69.90
2018-02-11T01:47:14.079Z,69.70
2018-02-11T01:49:43.177Z,69.57
2018-02-11T01:52:12.292Z,69.59
2018-02-11T01:54:40.626Z,69.50
2018-02-11T01:57:08.962Z,69.98
2018-02-11T01:59:37.301Z,69.88
2018-02-11T02:02:05.604Z,69.88
2018-02-11T02:04:33.959Z,69.84
2018-02-11T02:07:03.051Z,69.83
2018-02-11T02:09:32.164Z,69.96
2018-02-11T02:12:00.480Z,70.31
2018-02-11T02:14:28.856Z,70.13
2018-02-11T02:16:57.173Z,70.49
2018-02-11T02:19:25.490Z,70.59
2018-02-11T02:21:53.864Z,70.50
2018-02-11T02:24:22.197Z,70.18
2018-02-11T02:26:50.487Z,70.07
2018-02-11T02:29:19.788Z,70.10
2018-02-11T02:31:48.865Z,70.06
2018-02-11T02:34:17.185Z,70.09
2018-02-11T02:36:45.573Z,70.09
2018-02-11T02:39:13.922Z,70.07
2018-02-11T02:41:43.017Z,70.11
2018-02-11T02:44:12.148Z,70.15
2018-02-11T02:46:40.467Z,70.17
2018-02-11T02:49:08.777Z,70.47
2018-02-11T02:51:37.158Z,70.70
2018-02-11T02:54:05.472Z,70.63
2018-02-11T02:56:33.817Z,70.48
2018-02-11T02:59:02.131Z,70.50
2018-02-11T03:01:30.483Z,70.45
2018-02-11T03:03:58.809Z,70.34
2018-02-11T03:06:27.181Z,70.19
2018-02-11T03:08:55.500Z,70.31
2018-02-11T03:11:23.797Z,70.36
2018-02-11T03:13:52.145Z,70.34
2018-02-11T03:16:20.462Z,70.28
2018-02-11T03:18:48.821Z,70.25
2018-02-11T03:21:17.143Z,70.22
2018-02-11T03:23:45.474Z,70.31
2018-02-11T03:26:13.823Z,70.30
2018-02-11T03:28:42.919Z,70.25
2018-02-11T03:31:12.047Z,70.42
2018-02-11T03:33:40.381Z,70.42
2018-02-11T03:36:09.450Z,70.50
2018-02-11T03:38:38.201Z,70.60
2018-02-11T03:41:06.516Z,70.68
2018-02-11T03:43:34.860Z,70.80
2018-02-11T03:46:03.204Z,70.79
2018-02-11T03:48:32.322Z,70.87
2018-02-11T03:51:00.636Z,71.03
2018-02-11T03:53:28.946Z,70.71
2018-02-11T03:55:58.370Z,70.66
2018-02-11T03:58:26.718Z,70.53
2018-02-11T04:00:55.802Z,70.43
2018-02-11T04:03:24.152Z,70.67
2018-02-11T04:05:52.489Z,70.52
2018-02-11T04:08:21.584Z,70.49
2018-02-11T04:10:50.703Z,70.40
2018-02-11T04:13:19.037Z,70.57
2018-02-11T04:15:48.139Z,70.50
2018-02-11T04:18:17.250Z,70.56
2018-02-11T04:20:45.579Z,70.69
2018-02-11T04:23:13.922Z,70.62
2018-02-11T04:25:42.632Z,70.59
2018-02-11T04:28:10.960Z,70.91
2018-02-11T04:30:40.064Z,71.22
2018-02-11T04:33:08.364Z,71.30
2018-02-11T04:35:36.716Z,71.29
2018-02-11T04:38:05.784Z,71.42
2018-02-11T04:40:34.120Z,71.21
2018-02-11T04:43:02.456Z,71.04
2018-02-11T04:45:31.584Z,70.91
2018-02-11T04:47:59.930Z,71.14
2018-02-11T04:50:28.993Z,71.02
2018-02-11T04:52:57.348Z,71.06
2018-02-11T04:55:25.655Z,70.99
2018-02-11T04:57:53.962Z,70.71
2018-02-11T05:00:22.302Z,70.58
2018-02-11T05:02:50.650Z,70.50
2018-02-11T05:05:18.980Z,70.36
2018-02-11T05:07:48.083Z,70.21
2018-02-11T05:10:16.427Z,70.17
2018-02-11T05:12:44.719Z,70.13
2018-02-11T05:15:13.082Z,70.19
2018-02-11T05:17:41.428Z,70.24
2018-02-11T05:20:09.737Z,70.15
2018-02-11T05:22:38.120Z,70.32
2018-02-11T05:25:06.441Z,70.31
2018-02-11T05:27:34.752Z,70.36
2018-02-11T05:30:03.086Z,70.35
2018-02-11T05:32:31.405Z,70.18
2018-02-11T05:34:59.741Z,70.20
2018-02-11T05:37:28.091Z,70.33
2018-02-11T05:39:56.411Z,70.40
2018-02-11T05:42:24.765Z,70.44
2018-02-11T05:44:53.853Z,70.38
2018-02-11T05:47:22.985Z,70.31
2018-02-11T05:49:51.293Z,70.24
2018-02-11T05:52:20.046Z,70.22
2018-02-11T05:54:48.397Z,70.25
2018-02-11T05:57:17.489Z,70.15
2018-02-11T05:59:46.605Z,70.04
2018-02-11T06:02:14.929Z,70.01
2018-02-11T06:04:43.286Z,70.02
2018-02-11T06:07:11.605Z,70.07
2018-02-11T06:09:40.720Z,70.09
2018-02-11T06:12:09.047Z,70.18
2018-02-11T06:14:37.402Z,70.28
2018-02-11T06:17:05.724Z,70.17
2018-02-11T06:19:34.037Z,70.35
2018-02-11T06:22:02.417Z,70.29
2018-02-11T06:24:30.731Z,70.29
2018-02-11T06:26:59.085Z,70.23
2018-02-11T06:29:27.395Z,70.44
2018-02-11T06:31:55.711Z,70.46
2018-02-11T06:34:24.808Z,70.29
2018-02-11T06:36:53.921Z,70.20
2018-02-11T06:39:22.240Z,69.99
2018-02-11T06:41:50.561Z,69.83
2018-02-11T06:44:18.904Z,69.91
2018-02-11T06:46:47.227Z,69.80
2018-02-11T06:49:15.592Z,69.85
2018-02-11T06:51:43.909Z,69.77
2018-02-11T06:54:12.293Z,69.79
2018-02-11T06:56:40.645Z,69.65
2018-02-11T06:59:08.960Z,69.41
2018-02-11T07:01:37.275Z,69.27
2018-02-11T07:04:06.439Z,69.21
2018-02-11T07:06:34.747Z,68.94
2018-02-11T07:09:03.158Z,68.54
2018-02-11T07:11:31.445Z,68.21
2018-02-11T07:13:59.761Z,68.07
2018-02-11T07:16:28.879Z,68.00
2018-02-11T07:18:57.191Z,67.89
2018-02-11T07:21:25.540Z,67.74
2018-02-11T07:23:53.860Z,67.40
2018-02-11T07:26:22.228Z,67.28
2018-02-11T07:28:50.535Z,67.25
2018-02-11T07:31:18.847Z,67.32
2018-02-11T07:33:47.205Z,67.28
2018-02-11T07:36:16.280Z,67.49
2018-02-11T07:38:45.404Z,68.05
2018-02-11T07:41:14.518Z,68.80
2018-02-11T07:43:42.860Z,69.25
2018-02-11T07:46:11.960Z,69.52
2018-02-11T07:48:41.073Z,69.41
2018-02-11T07:51:09.378Z,68.92
2018-02-11T07:53:37.732Z,68.34
2018-02-11T07:56:06.096Z,67.50
2018-02-11T07:58:35.280Z,66.38
2018-02-11T08:01:04.351Z,65.64
2018-02-11T08:03:32.689Z,65.39
2018-02-11T08:06:01.053Z,65.17
2018-02-11T08:08:29.389Z,64.86
2018-02-11T08:10:57.749Z,64.79
2018-02-11T08:13:26.076Z,64.55
2018-02-11T08:15:55.204Z,64.54
2018-02-11T08:18:23.673Z,64.36
2018-02-11T08:20:51.996Z,64.29
2018-02-11T08:23:21.130Z,64.20
2018-02-11T08:25:49.496Z,64.51
2018-02-11T08:28:18.994Z,65.04
2018-02-11T08:30:48.082Z,65.73
2018-02-11T08:33:16.492Z,66.10
2018-02-11T08:35:44.872Z,66.32
2018-02-11T08:38:13.212Z,66.58
2018-02-11T08:40:41.555Z,66.36
2018-02-11T08:43:09.868Z,65.94
2018-02-11T08:45:38.222Z,65.64
2018-02-11T08:48:06.756Z,65.62
2018-02-11T08:50:35.486Z,65.25
2018-02-11T08:53:19.011Z,64.90
2018-02-11T08:55:47.368Z,64.55
2018-02-11T08:58:16.068Z,64.19
2018-02-11T09:00:44.428Z,64.13
2018-02-11T09:03:12.727Z,63.96
2018-02-11T09:05:41.098Z,63.84
2018-02-11T09:08:09.424Z,63.86
2018-02-11T09:10:37.800Z,63.83
2018-02-11T09:13:06.978Z,63.92
2018-02-11T09:15:35.298Z,63.60
2018-02-11T09:18:03.616Z,63.37
2018-02-11T09:20:31.937Z,63.17
2018-02-11T09:23:01.360Z,63.23
2018-02-11T09:25:29.679Z,62.88
2018-02-11T09:27:58.016Z,62.80
2018-02-11T09:30:26.814Z,62.64
2018-02-11T09:32:55.156Z,62.67
2018-02-11T09:35:24.288Z,62.66
2018-02-11T09:37:52.608Z,62.26
2018-02-11T09:40:20.968Z,61.80
2018-02-11T09:42:49.291Z,61.12
2018-02-11T09:45:19.396Z,60.50
2018-02-11T09:47:47.821Z,59.87
2018-02-11T09:50:16.217Z,59.03
2018-02-11T09:52:44.548Z,58.79
2018-02-11T09:55:13.631Z,58.81
2018-02-11T09:57:42.759Z,58.89
2018-02-11T10:00:11.096Z,58.94
2018-02-11T10:02:39.837Z,58.95
2018-02-11T10:05:09.063Z,58.93
2018-02-11T10:07:37.479Z,58.83
2018-02-11T10:10:06.730Z,58.77
2018-02-11T10:12:35.715Z,58.50
2018-02-11T10:15:04.144Z,58.09
2018-02-11T10:17:33.248Z,57.47
2018-02-11T10:20:02.697Z,57.35
2018-02-11T10:22:31.088Z,56.58
2018-02-11T10:24:59.433Z,56.48
2018-02-11T10:27:27.819Z,55.93
2018-02-11T10:29:56.156Z,55.96
2018-02-11T10:32:24.501Z,55.57
2018-02-11T10:34:52.851Z,54.70
2018-02-11T10:37:21.201Z,54.11
2018-02-11T10:39:49.553Z,53.08
2018-02-11T10:42:19.545Z,52.16
2018-02-11T10:44:47.883Z,51.51
2018-02-11T10:47:16.199Z,49.58
2018-02-11T10:49:44.563Z,49.50
2018-02-11T10:52:12.887Z,48.94
2018-02-11T10:54:42.026Z,47.83
2018-02-11T10:57:10.388Z,47.46
2018-02-11T10:59:38.707Z,47.82
2018-02-11T11:02:07.049Z,47.66
2018-02-11T11:04:35.420Z,48.63
2018-02-11T11:07:03.757Z,48.03
2018-02-11T11:09:32.079Z,48.09
2018-02-11T11:12:00.451Z,48.11
2018-02-11T11:14:28.784Z,47.66
2018-02-11T11:16:57.113Z,47.73
2018-02-11T11:19:25.467Z,47.14
2018-02-11T11:21:54.552Z,47.06
2018-02-11T11:24:24.877Z,47.94
2018-02-11T11:26:54.011Z,47.76
2018-02-11T11:29:22.392Z,47.44
2018-02-11T11:31:50.811Z,47.72
2018-02-11T11:34:19.153Z,47.56
2018-02-11T11:36:47.988Z,47.89
2018-02-11T11:39:17.185Z,48.73
2018-02-11T11:41:45.615Z,48.83
2018-02-11T11:44:14.016Z,49.14
2018-02-11T11:46:42.387Z,49.87
2018-02-11T11:49:10.783Z,50.09
2018-02-11T11:51:39.156Z,49.77
2018-02-11T11:54:08.438Z,50.47
2018-02-11T11:56:36.924Z,50.09
2018-02-11T11:59:05.307Z,49.59
2018-02-11T12:01:33.700Z,49.25
2018-02-11T12:04:02.802Z,48.43
2018-02-11T12:06:32.135Z,47.67
2018-02-11T12:09:00.520Z,47.30
2018-02-11T12:11:28.910Z,46.81
2018-02-11T12:13:57.420Z,46.53
2018-02-11T12:16:25.817Z,46.07
2018-02-11T12:18:54.215Z,45.36
2018-02-11T12:21:23.375Z,45.36
2018-02-11T12:23:51.837Z,44.86
2018-02-11T12:26:21.392Z,45.80
2018-02-11T12:28:49.814Z,45.67
2018-02-11T12:31:18.309Z,45.69
2018-02-11T12:33:46.690Z,44.98
2018-02-11T12:36:15.459Z,45.17
2018-02-11T12:38:56.311Z,46.42
2018-02-11T12:41:25.487Z,46.86
2018-02-11T12:43:54.977Z,46.43
2018-02-11T12:46:23.510Z,45.91
2018-02-11T12:48:52.094Z,45.07
2018-02-11T12:51:20.597Z,44.47
2018-02-11T12:53:49.934Z,44.55
2018-02-11T12:56:18.947Z,45.51
2018-02-11T12:58:59.874Z,45.75
2018-02-11T13:01:30.078Z,45.98
2018-02-11T13:03:59.721Z,46.22
2018-02-11T13:06:30.205Z,46.80
2018-02-11T13:08:59.140Z,47.57
2018-02-11T13:11:28.931Z,48.23
2018-02-11T13:14:00.257Z,48.48
2018-02-11T13:16:29.973Z,48.69
2018-02-11T13:18:59.492Z,48.32
2018-02-11T13:21:28.794Z,48.09
2018-02-11T13:23:58.916Z,48.30
2018-02-11T13:26:28.386Z,49.58
2018-02-11T13:28:57.128Z,49.61
2018-02-11T13:31:26.722Z,50.15
2018-02-11T13:33:57.951Z,50.23
2018-02-11T13:36:35.227Z,50.98
2018-02-11T13:39:04.026Z,50.94
2018-02-11T13:41:32.587Z,51.65
2018-02-11T13:44:01.079Z,51.71
2018-02-11T13:46:29.712Z,51.99
2018-02-11T13:48:58.142Z,51.66
2018-02-11T13:51:26.586Z,51.11
2018-02-11T13:53:56.090Z,50.65
2018-02-11T13:56:24.685Z,50.08
2018-02-11T13:58:53.528Z,50.66
2018-02-11T14:01:24.370Z,50.97
2018-02-11T14:03:54.045Z,51.47
2018-02-11T14:06:22.675Z,52.27
2018-02-11T14:08:51.754Z,51.99
2018-02-11T14:11:20.325Z,52.12
2018-02-11T14:13:48.898Z,52.88
2018-02-11T14:16:17.376Z,53.06
2018-02-11T14:18:50.301Z,54.51
2018-02-11T14:21:20.572Z,55.37
2018-02-11T14:26:25.314Z,57.54
2018-02-11T14:28:53.795Z,58.33
2018-02-11T14:31:24.285Z,58.52
2018-02-11T14:33:54.153Z,59.17
2018-02-11T14:36:23.475Z,59.26
2018-02-11T14:38:53.480Z,59.54
2018-02-11T14:41:25.267Z,59.99
2018-02-11T14:43:57.620Z,60.57
2018-02-11T14:46:26.135Z,60.83
2018-02-11T14:48:54.643Z,60.90
2018-02-11T14:51:23.028Z,61.26
2018-02-11T14:53:51.473Z,61.89
2018-02-11T14:56:20.038Z,62.29
2018-02-11T14:58:48.613Z,63.28
2018-02-11T15:01:17.809Z,63.82
2018-02-11T15:03:47.471Z,63.89
2018-02-11T15:06:16.089Z,64.00
2018-02-11T15:08:44.449Z,64.44
2018-02-11T15:11:13.963Z,65.14
2018-02-11T15:13:43.053Z,65.17
2018-02-11T15:16:11.441Z,65.60
2018-02-11T15:18:39.827Z,65.99
2018-02-11T15:21:08.248Z,66.51
2018-02-11T15:23:36.560Z,66.55
2018-02-11T15:26:05.185Z,67.57
2018-02-11T15:28:34.267Z,68.17
2018-02-11T15:31:02.904Z,68.94
2018-02-11T15:33:31.946Z,69.87
2018-02-11T15:36:00.720Z,70.47
2018-02-11T15:38:29.067Z,71.52
2018-02-11T15:40:57.397Z,72.31
2018-02-11T15:43:26.547Z,73.75
2018-02-11T15:45:54.905Z,74.58
2018-02-11T15:48:23.218Z,75.56
2018-02-11T15:50:51.608Z,75.99
2018-02-11T15:53:19.894Z,76.60
2018-02-11T15:55:48.273Z,77.31
2018-02-11T15:58:17.365Z,78.14
2018-02-11T16:00:45.752Z,78.99
2018-02-11T16:03:14.955Z,79.39
2018-02-11T16:05:43.408Z,79.42
2018-02-11T16:08:11.736Z,80.47
2018-02-11T16:10:40.108Z,79.85
2018-02-11T16:13:08.460Z,80.87
2018-02-11T16:15:37.600Z,81.09
2018-02-11T16:18:07.731Z,80.98
2018-02-11T16:20:36.340Z,81.67
2018-02-11T16:23:05.006Z,81.92
2018-02-11T16:25:33.330Z,82.23
2018-02-11T16:28:01.706Z,81.72
2018-02-11T16:30:31.603Z,81.19
2018-02-11T16:33:00.689Z,81.96
2018-02-11T16:35:29.086Z,81.23
2018-02-11T16:37:57.469Z,80.98
2018-02-11T16:40:27.554Z,81.14
2018-02-11T16:42:56.042Z,81.69
2018-02-11T16:45:24.437Z,81.94
2018-02-11T16:47:53.819Z,82.47
2018-02-11T16:50:23.692Z,81.63
2018-02-11T16:52:52.318Z,82.11
2018-02-11T16:55:20.772Z,81.74
2018-02-11T16:57:49.545Z,81.52
2018-02-11T17:00:21.262Z,81.66
2018-02-11T17:02:50.455Z,81.97
2018-02-11T17:05:19.197Z,81.96
2018-02-11T17:07:48.311Z,81.71
2018-02-11T17:10:17.421Z,81.80
2018-02-11T17:12:46.472Z,82.57
2018-02-11T17:15:15.483Z,82.79
2018-02-11T17:17:43.884Z,82.53
2018-02-11T17:20:12.191Z,82.58
2018-02-11T17:22:41.259Z,81.94
2018-02-11T17:25:09.603Z,82.28
2018-02-11T17:27:38.352Z,82.75
2018-02-11T17:30:07.977Z,82.67
2018-02-11T17:32:36.331Z,82.82
2018-02-11T17:35:05.494Z,82.90
2018-02-11T17:37:33.838Z,83.09
2018-02-11T17:40:03.034Z,83.21
2018-02-11T17:42:32.304Z,83.14
2018-02-11T17:45:03.956Z,82.87
2018-02-11T17:47:33.100Z,83.09
2018-02-11T17:50:01.460Z,83.13
2018-02-11T17:52:30.968Z,83.11
2018-02-11T17:54:59.721Z,82.61
2018-02-11T17:57:28.099Z,82.62
2018-02-11T17:59:57.300Z,82.40
2018-02-11T18:02:26.405Z,82.59
2018-02-11T18:04:56.282Z,82.61
2018-02-11T18:07:24.819Z,82.56
2018-02-11T18:09:53.143Z,81.95
2018-02-11T18:12:21.709Z,82.64
2018-02-11T18:14:50.021Z,82.53
2018-02-11T18:17:18.704Z,82.18
2018-02-11T18:19:47.067Z,82.32
2018-02-11T18:22:15.405Z,82.50
2018-02-11T18:24:43.768Z,82.83
2018-02-11T18:27:13.111Z,82.86
2018-02-11T18:29:41.463Z,82.67
2018-02-11T18:32:10.471Z,82.51
2018-02-11T18:34:38.965Z,82.54
2018-02-11T18:37:08.119Z,82.54
2018-02-11T18:39:36.480Z,82.57
2018-02-11T18:42:05.656Z,82.40
2018-02-11T18:44:35.842Z,82.40
2018-02-11T18:47:04.241Z,82.36
2018-02-11T18:49:32.560Z,82.49
2018-02-11T18:52:00.932Z,82.50
2018-02-11T18:54:29.962Z,82.57
2018-02-11T18:56:58.371Z,82.70
2018-02-11T18:59:28.259Z,82.66
2018-02-11T19:01:56.611Z,82.84
2018-02-11T19:04:24.934Z,83.05
2018-02-11T19:06:53.352Z,83.32
2018-02-11T19:09:21.819Z,83.53
2018-02-11T19:11:50.883Z,83.63
2018-02-11T19:14:19.253Z,83.82
2018-02-11T19:16:49.594Z,83.92
2018-02-11T19:19:17.963Z,84.05
2018-02-11T19:21:46.338Z,84.11
2018-02-11T19:24:14.653Z,84.14
2018-02-11T19:26:43.756Z,84.31
2018-02-11T19:29:12.915Z,84.32
2018-02-11T19:31:44.893Z,84.30
2018-02-11T19:34:13.692Z,84.28
2018-02-11T19:36:43.593Z,84.29
2018-02-11T19:39:12.180Z,84.28
2018-02-11T19:41:40.550Z,84.29
2018-02-11T19:44:08.967Z,84.07
2018-02-11T19:46:38.829Z,84.08
2018-02-11T19:49:09.247Z,83.97
2018-02-11T19:51:38.394Z,83.81
2018-02-11T19:54:06.954Z,83.71
2018-02-11T19:56:36.140Z,83.66
2018-02-11T19:59:04.986Z,83.47
2018-02-11T20:01:33.332Z,83.24
2018-02-11T20:04:03.171Z,83.03
2018-02-11T20:06:31.509Z,82.85
2018-02-11T20:09:02.167Z,82.59
2018-02-11T20:11:30.499Z,82.44
2018-02-11T20:13:59.599Z,82.27
2018-02-11T20:16:28.650Z,82.13
2018-02-11T20:18:57.949Z,81.93
2018-02-11T20:21:26.270Z,81.76
2018-02-11T20:23:54.659Z,81.68
2018-02-11T20:26:23.752Z,81.65
2018-02-11T20:28:52.210Z,81.57
2018-02-11T20:31:21.488Z,81.64
2018-02-11T20:33:50.768Z,81.72
2018-02-11T20:36:19.166Z,81.63
2018-02-11T20:38:48.480Z,81.64
2018-02-11T20:41:17.418Z,81.48
2018-02-11T20:43:48.009Z,81.39
2018-02-11T20:46:16.374Z,81.26
2018-02-11T20:48:44.712Z,81.19
2018-02-11T20:51:14.109Z,80.91
2018-02-11T20:53:43.206Z,80.78
2018-02-11T20:56:12.338Z,80.64
2018-02-11T20:58:40.886Z,80.63
2018-02-11T21:01:10.016Z,80.38
2018-02-11T21:03:38.416Z,80.29
2018-02-11T21:06:08.230Z,80.06
2018-02-11T21:08:36.570Z,79.97
2018-02-11T21:11:04.880Z,79.69
2018-02-11T21:13:33.231Z,79.82
2018-02-11T21:16:02.313Z,79.81
2018-02-11T21:18:31.377Z,79.77
2018-02-11T21:21:00.488Z,79.70
2018-02-11T21:23:29.658Z,79.68
2018-02-11T21:25:58.013Z,79.58
2018-02-11T21:28:27.044Z,79.53
2018-02-11T21:30:56.522Z,79.37
2018-02-11T21:33:25.581Z,79.24
2018-02-11T21:35:53.942Z,79.18
2018-02-11T21:38:22.272Z,79.30
2018-02-11T21:40:50.601Z,79.34
2018-02-11T21:43:18.995Z,79.36
2018-02-11T21:45:48.090Z,79.21
2018-02-11T21:48:16.908Z,79.01
2018-02-11T21:50:45.208Z,78.90
2018-02-11T21:53:14.340Z,78.87
2018-02-11T21:55:42.652Z,78.65
2018-02-11T21:58:10.962Z,78.54
2018-02-11T22:00:40.439Z,78.59
2018-02-11T22:03:08.774Z,78.46
2018-02-11T22:05:37.068Z,78.12
2018-02-11T22:08:06.189Z,78.15
2018-02-11T22:10:34.541Z,78.08
2018-02-11T22:13:02.864Z,78.04
2018-02-11T22:15:31.178Z,78.05
2018-02-11T22:17:59.521Z,77.88
2018-02-11T22:20:28.594Z,77.71
2018-02-11T22:22:56.933Z,77.66
2018-02-11T22:25:26.062Z,77.60
2018-02-11T22:27:54.375Z,77.43
2018-02-11T22:30:23.477Z,77.45
2018-02-11T22:32:52.590Z,77.22
2018-02-11T22:35:20.982Z,77.10
2018-02-11T22:37:50.478Z,76.95
2018-02-11T22:40:18.822Z,76.82
2018-02-11T22:42:48.054Z,76.99
2018-02-11T22:45:16.401Z,77.06
2018-02-11T22:47:45.525Z,77.27
2018-02-11T22:50:14.965Z,77.19
2018-02-11T22:52:43.311Z,77.28
2018-02-11T22:55:11.626Z,77.31
2018-02-11T22:57:39.961Z,77.43
2018-02-11T23:00:08.288Z,77.42
2018-02-11T23:02:37.365Z,77.53
2018-02-11T23:05:06.093Z,77.85
2018-02-11T23:07:34.427Z,77.87
2018-02-11T23:10:03.546Z,78.10
2018-02-11T23:12:32.277Z,78.26
2018-02-11T23:15:00.617Z,78.51
2018-02-11T23:17:29.753Z,78.84
2018-02-11T23:19:58.051Z,78.70
2018-02-11T23:22:27.987Z,78.89
2018-02-11T23:24:56.307Z,79.09
2018-02-11T23:27:24.633Z,79.22
2018-02-11T23:29:52.978Z,79.11
2018-02-11T23:32:21.289Z,79.06
2018-02-11T23:34:49.597Z,79.06
2018-02-11T23:37:18.798Z,79.04
2018-02-11T23:39:47.897Z,79.17
2018-02-11T23:42:16.233Z,79.26
2018-02-11T23:44:44.573Z,79.17
2018-02-11T23:47:12.913Z,79.14
2018-02-11T23:49:42.029Z,79.15
2018-02-11T23:52:10.421Z,79.04
2018-02-11T23:54:38.764Z,79.03
2018-02-11T23:57:07.837Z,78.86
2018-02-11T23:59:36.165Z,78.86
